Time;durP1;ratioP1;P1;durP2;ratioP2;P2;SDS_P1;SDS_P2;PMS_P1;PMS_P2;Temp;Humidity;BMP_temperature;BMP_pressure;BME280_temperature;BME280_humidity;BME280_pressure;Samples;Min_cycle;Max_cycle;Signal;HPM_P1;HPM_P2
2021/11/30 00:00:56;;;;;;;3.03;1.83;;;;;;;;;;5070374;28;20230;-65
2021/11/30 00:03:26;;;;;;;3.25;2.13;;;;;;;;;;5068466;28;20186;-64
2021/11/30 00:05:53;;;;;;;3.15;1.65;;;;;;;;;;5056715;28;20226;-64
2021/11/30 00:08:24;;;;;;;2.83;1.80;;;;;;;;;;5052915;28;20187;-65
2021/11/30 00:10:54;;;;;;;2.70;1.45;;;;;;;;;;5052125;28;20720;-65
2021/11/30 00:13:23;;;;;;;3.22;2.10;;;;;;;;;;5053006;28;20755;-65
2021/11/30 00:15:52;;;;;;;2.38;1.50;;;;;;;;;;5050793;28;20262;-63
2021/11/30 00:18:20;;;;;;;3.08;1.42;;;;;;;;;;5054199;28;20546;-64
2021/11/30 00:20:48;;;;;;;2.30;1.50;;;;;;;;;;5052095;28;20248;-64
2021/11/30 00:23:19;;;;;;;4.22;1.95;;;;;;;;;;5054907;28;20190;-66
2021/11/30 00:25:56;;;;;;;2.83;1.80;;;;;;;;;;5052222;28;20194;-64
2021/11/30 00:28:25;;;;;;;2.97;1.50;;;;;;;;;;5065788;28;20194;-65
2021/11/30 00:30:53;;;;;;;2.25;1.52;;;;;;;;;;5069304;28;20245;-65
2021/11/30 00:33:23;;;;;;;2.35;1.33;;;;;;;;;;5069661;28;20229;-65
2021/11/30 00:35:51;;;;;;;1.90;1.13;;;;;;;;;;5064393;28;20194;-65
2021/11/30 00:38:19;;;;;;;2.45;1.38;;;;;;;;;;5068872;28;20256;-65
2021/11/30 00:40:47;;;;;;;2.03;0.98;;;;;;;;;;5069136;28;20653;-66
2021/11/30 00:43:19;;;;;;;2.17;1.27;;;;;;;;;;5068930;28;20190;-65
2021/11/30 00:45:55;;;;;;;2.03;1.35;;;;;;;;;;5069222;28;20197;-65
2021/11/30 00:48:30;;;;;;;2.40;1.20;;;;;;;;;;5069321;28;20193;-66
2021/11/30 00:51:00;;;;;;;3.08;0.98;;;;;;;;;;5052544;28;20194;-65
2021/11/30 00:53:28;;;;;;;1.80;1.00;;;;;;;;;;5051523;28;20316;-64
2021/11/30 00:56:02;;;;;;;2.00;1.00;;;;;;;;;;5053141;28;20649;-65
2021/11/30 00:58:32;;;;;;;2.55;1.23;;;;;;;;;;5051523;28;20200;-64
2021/11/30 01:01:04;;;;;;;1.90;1.15;;;;;;;;;;5054276;28;20191;-67
2021/11/30 01:03:31;;;;;;;3.22;1.10;;;;;;;;;;5065162;28;20566;-65
2021/11/30 01:05:59;;;;;;;2.50;1.33;;;;;;;;;;5068873;28;20296;-64
2021/11/30 01:08:27;;;;;;;1.83;0.95;;;;;;;;;;5068992;28;20205;-66
2021/11/30 01:10:56;;;;;;;3.20;1.50;;;;;;;;;;5067236;28;20228;-66
2021/11/30 01:13:24;;;;;;;3.85;1.42;;;;;;;;;;5052190;28;20226;-64
2021/11/30 01:15:54;;;;;;;2.45;1.60;;;;;;;;;;5051285;28;20234;-65
2021/11/30 01:18:27;;;;;;;3.65;1.65;;;;;;;;;;5055028;28;20197;-66
2021/11/30 01:20:55;;;;;;;1.88;1.08;;;;;;;;;;5065857;28;20494;-64
2021/11/30 01:23:29;;;;;;;2.30;1.40;;;;;;;;;;5068661;28;20293;-64
2021/11/30 01:26:03;;;;;;;2.53;1.35;;;;;;;;;;5068714;28;20196;-65
2021/11/30 01:28:33;;;;;;;2.58;1.23;;;;;;;;;;5072859;28;20222;-65
2021/11/30 01:31:01;;;;;;;2.50;1.52;;;;;;;;;;5073411;28;20615;-65
2021/11/30 01:33:35;;;;;;;3.30;1.52;;;;;;;;;;5072270;28;20214;-64
2021/11/30 01:36:02;;;;;;;2.30;1.40;;;;;;;;;;5072644;28;20209;-64
2021/11/30 01:38:32;;;;;;;2.38;1.20;;;;;;;;;;5071982;28;20251;-64
2021/11/30 01:41:02;;;;;;;2.70;1.50;;;;;;;;;;5068321;28;20277;-65
2021/11/30 01:43:38;;;;;;;2.40;1.35;;;;;;;;;;5072551;28;20663;-65
2021/11/30 01:46:09;;;;;;;2.15;1.30;;;;;;;;;;5072180;28;20197;-65
2021/11/30 01:51:24;;;;;;;2.17;1.20;;;;;;;;;;5067545;28;20348;-64
2021/11/30 01:53:55;;;;;;;2.38;1.42;;;;;;;;;;5054778;28;20257;-65
2021/11/30 01:56:25;;;;;;;1.80;1.10;;;;;;;;;;5055337;28;20203;-65
2021/11/30 01:58:53;;;;;;;6.43;1.05;;;;;;;;;;5058990;28;20244;-64
2021/11/30 02:01:25;;;;;;;2.58;1.48;;;;;;;;;;5058333;28;20190;-64
2021/11/30 02:03:56;;;;;;;2.03;0.88;;;;;;;;;;5054675;28;20194;-65
2021/11/30 02:06:23;;;;;;;2.35;1.10;;;;;;;;;;5068197;28;20186;-65
2021/11/30 02:08:51;;;;;;;1.60;0.90;;;;;;;;;;5072844;28;20186;-64
2021/11/30 02:11:19;;;;;;;1.80;0.93;;;;;;;;;;5064263;28;20187;-64
2021/11/30 02:13:48;;;;;;;2.00;1.05;;;;;;;;;;5054400;28;20214;-65
2021/11/30 02:16:19;;;;;;;2.00;1.20;;;;;;;;;;5054540;28;20215;-64
2021/11/30 02:18:47;;;;;;;2.55;1.33;;;;;;;;;;5054609;28;20187;-64
2021/11/30 02:21:18;;;;;;;1.75;0.98;;;;;;;;;;5055773;28;20186;-64
2021/11/30 02:23:57;;;;;;;1.85;1.10;;;;;;;;;;5068662;28;20564;-64
2021/11/30 02:26:25;;;;;;;2.80;1.08;;;;;;;;;;5071442;28;20253;-65
2021/11/30 02:28:56;;;;;;;1.80;1.05;;;;;;;;;;5054233;28;20245;-64
2021/11/30 02:31:24;;;;;;;2.30;1.20;;;;;;;;;;5057772;28;20216;-64
2021/11/30 02:33:52;;;;;;;2.60;1.10;;;;;;;;;;5054384;28;20226;-64
2021/11/30 02:36:24;;;;;;;1.90;1.27;;;;;;;;;;5058415;28;20202;-64
2021/11/30 02:38:55;;;;;;;2.58;1.13;;;;;;;;;;5053073;28;20237;-64
2021/11/30 02:41:26;;;;;;;2.10;1.25;;;;;;;;;;5055006;28;20191;-64
2021/11/30 02:43:53;;;;;;;2.30;1.35;;;;;;;;;;5071856;28;20198;-64
2021/11/30 02:46:36;;;;;;;4.03;1.60;;;;;;;;;;5056874;28;20556;-64
2021/11/30 02:49:05;;;;;;;1.80;1.10;;;;;;;;;;5058022;28;20199;-65
2021/11/30 02:51:35;;;;;;;3.08;1.30;;;;;;;;;;5056043;28;20190;-64
2021/11/30 02:54:07;;;;;;;2.30;1.30;;;;;;;;;;5053829;28;20226;-64
2021/11/30 02:56:46;;;;;;;2.15;1.10;;;;;;;;;;5056918;28;20645;-64
2021/11/30 02:59:14;;;;;;;2.97;1.23;;;;;;;;;;5057852;28;20187;-64
2021/11/30 03:01:42;;;;;;;2.00;1.20;;;;;;;;;;5053479;28;20199;-64
2021/11/30 03:04:11;;;;;;;2.50;1.20;;;;;;;;;;5054344;28;20585;-65
2021/11/30 03:06:45;;;;;;;2.28;1.60;;;;;;;;;;5053837;28;20637;-64
2021/11/30 03:09:15;;;;;;;3.38;1.70;;;;;;;;;;5059102;28;20195;-64
2021/11/30 03:11:43;;;;;;;1.92;1.20;;;;;;;;;;5053783;28;20240;-64
2021/11/30 03:14:11;;;;;;;3.10;1.45;;;;;;;;;;5056288;28;20237;-65
2021/11/30 03:16:43;;;;;;;2.55;1.70;;;;;;;;;;5053274;28;20247;-65
2021/11/30 03:19:11;;;;;;;2.53;1.50;;;;;;;;;;5067807;28;20194;-64
2021/11/30 03:21:42;;;;;;;7.15;1.15;;;;;;;;;;5071254;28;20187;-64
2021/11/30 03:24:11;;;;;;;3.83;1.42;;;;;;;;;;5070021;28;20187;-64
2021/11/30 03:26:39;;;;;;;1.90;1.00;;;;;;;;;;5071274;28;20198;-64
2021/11/30 03:29:08;;;;;;;3.95;1.70;;;;;;;;;;5070751;28;20246;-64
2021/11/30 03:31:49;;;;;;;2.90;1.50;;;;;;;;;;5070893;28;20220;-64
2021/11/30 03:34:17;;;;;;;2.45;1.45;;;;;;;;;;5068071;28;20986;-64
2021/11/30 03:36:49;;;;;;;3.00;1.63;;;;;;;;;;5070122;28;20607;-64
2021/11/30 03:39:18;;;;;;;1.90;1.20;;;;;;;;;;5057512;28;20506;-64
2021/11/30 03:41:49;;;;;;;3.55;1.40;;;;;;;;;;5063217;28;20646;-64
2021/11/30 03:44:19;;;;;;;5.20;1.58;;;;;;;;;;5070592;28;20217;-64
2021/11/30 03:46:48;;;;;;;3.70;1.48;;;;;;;;;;5057170;28;20194;-64
2021/11/30 03:49:19;;;;;;;2.88;1.60;;;;;;;;;;5052612;28;20208;-64
2021/11/30 03:51:54;;;;;;;2.55;1.60;;;;;;;;;;5053912;28;20183;-64
2021/11/30 03:54:23;;;;;;;3.30;1.90;;;;;;;;;;5056674;28;20297;-64
2021/11/30 03:56:53;;;;;;;2.25;1.50;;;;;;;;;;5054881;28;20187;-64
2021/11/30 03:59:21;;;;;;;2.65;1.33;;;;;;;;;;5052398;28;20190;-64
2021/11/30 04:01:55;;;;;;;2.97;1.60;;;;;;;;;;5056023;28;20213;-63
2021/11/30 04:04:25;;;;;;;3.67;1.50;;;;;;;;;;5052910;28;20236;-63
2021/11/30 04:06:53;;;;;;;2.22;1.50;;;;;;;;;;5052886;28;20561;-65
2021/11/30 04:09:21;;;;;;;2.85;2.00;;;;;;;;;;5052849;28;20202;-64
2021/11/30 04:11:50;;;;;;;5.57;1.80;;;;;;;;;;5052803;28;20669;-64
2021/11/30 04:14:18;;;;;;;2.25;1.60;;;;;;;;;;5052259;28;20218;-65
2021/11/30 04:16:46;;;;;;;4.93;1.58;;;;;;;;;;5058259;28;20264;-64
2021/11/30 04:19:21;;;;;;;2.42;1.50;;;;;;;;;;5052484;28;20840;-63
2021/11/30 04:21:49;;;;;;;3.03;1.40;;;;;;;;;;5056279;28;20190;-64
2021/11/30 04:24:17;;;;;;;2.85;1.65;;;;;;;;;;5052504;28;20194;-64
2021/11/30 04:26:47;;;;;;;2.30;1.35;;;;;;;;;;5052541;28;20201;-64
2021/11/30 04:29:22;;;;;;;2.83;1.67;;;;;;;;;;5052328;28;20554;-64
2021/11/30 04:31:52;;;;;;;4.32;2.00;;;;;;;;;;5065996;28;20283;-64
2021/11/30 04:34:21;;;;;;;5.30;2.17;;;;;;;;;;5070008;28;20296;-64
2021/11/30 04:36:50;;;;;;;3.22;1.40;;;;;;;;;;5068792;28;20272;-65
2021/11/30 04:39:20;;;;;;;2.75;1.50;;;;;;;;;;5066238;28;20190;-64
2021/11/30 04:41:50;;;;;;;3.10;2.05;;;;;;;;;;5069326;28;20192;-64
2021/11/30 04:44:21;;;;;;;3.05;2.30;;;;;;;;;;5069607;28;20645;-65
2021/11/30 04:46:54;;;;;;;2.45;1.60;;;;;;;;;;5064026;28;20240;-66
2021/11/30 04:49:53;;;;;;;2.58;1.30;;;;;;;;;;5053879;28;20205;-65
2021/11/30 04:52:24;;;;;;;1.88;1.10;;;;;;;;;;5068552;28;20645;-66
2021/11/30 04:54:52;;;;;;;2.83;1.25;;;;;;;;;;5066296;28;20287;-65
2021/11/30 04:57:20;;;;;;;3.40;1.48;;;;;;;;;;5057975;28;20281;-65
2021/11/30 04:59:51;;;;;;;5.05;1.63;;;;;;;;;;5051890;28;20278;-65
2021/11/30 05:02:23;;;;;;;4.95;1.63;;;;;;;;;;5053585;28;20291;-65
2021/11/30 05:04:55;;;;;;;3.33;1.25;;;;;;;;;;5051716;28;20206;-64
2021/11/30 05:07:25;;;;;;;4.72;1.90;;;;;;;;;;5055032;28;20205;-67
2021/11/30 05:09:53;;;;;;;3.05;1.38;;;;;;;;;;5065615;28;20195;-65
2021/11/30 05:12:25;;;;;;;4.20;1.88;;;;;;;;;;5058367;28;20191;-65
2021/11/30 05:14:54;;;;;;;3.08;2.00;;;;;;;;;;5051656;28;20235;-65
2021/11/30 05:17:26;;;;;;;2.95;1.90;;;;;;;;;;5055611;28;20194;-65
2021/11/30 05:20:13;;;;;;;2.95;1.65;;;;;;;;;;5061146;28;20190;-66
2021/11/30 05:22:41;;;;;;;4.57;1.85;;;;;;;;;;5066945;28;20236;-65
2021/11/30 05:25:08;;;;;;;5.50;1.60;;;;;;;;;;5069163;28;20519;-65
2021/11/30 05:27:41;;;;;;;2.38;1.40;;;;;;;;;;5068479;28;20192;-65
2021/11/30 05:30:13;;;;;;;2.13;1.35;;;;;;;;;;5069741;28;20220;-65
2021/11/30 05:32:42;;;;;;;3.20;2.10;;;;;;;;;;5069524;28;20600;-65
2021/11/30 05:35:13;;;;;;;7.05;2.42;;;;;;;;;;5055523;28;20222;-65
2021/11/30 05:37:42;;;;;;;3.00;1.63;;;;;;;;;;5053885;28;20218;-64
2021/11/30 05:40:17;;;;;;;4.78;2.28;;;;;;;;;;5052716;28;20562;-65
2021/11/30 05:42:45;;;;;;;6.70;2.08;;;;;;;;;;5065192;28;20190;-65
2021/11/30 05:45:14;;;;;;;2.72;2.03;;;;;;;;;;5069611;28;20202;-65
2021/11/30 05:47:46;;;;;;;7.47;2.00;;;;;;;;;;5060421;28;20240;-65
2021/11/30 05:50:18;;;;;;;4.75;2.58;;;;;;;;;;5065443;28;20190;-65
2021/11/30 05:52:46;;;;;;;2.33;1.75;;;;;;;;;;5068498;28;20208;-65
2021/11/30 05:55:17;;;;;;;5.68;1.95;;;;;;;;;;5068863;28;20222;-66
2021/11/30 05:57:45;;;;;;;5.45;1.95;;;;;;;;;;5068966;28;20182;-65
2021/11/30 06:00:16;;;;;;;4.75;1.70;;;;;;;;;;5069147;28;20206;-65
2021/11/30 06:03:00;;;;;;;6.60;2.00;;;;;;;;;;5063554;28;20199;-66
2021/11/30 06:05:31;;;;;;;5.35;1.90;;;;;;;;;;5067242;28;20182;-65
2021/11/30 06:08:03;;;;;;;3.70;2.08;;;;;;;;;;5067871;28;20190;-65
2021/11/30 06:10:33;;;;;;;4.80;2.00;;;;;;;;;;5062450;28;20183;-64
2021/11/30 06:13:01;;;;;;;8.07;2.10;;;;;;;;;;5051360;28;20676;-65
2021/11/30 06:15:31;;;;;;;2.95;2.10;;;;;;;;;;5055315;28;20842;-65
2021/11/30 06:17:59;;;;;;;2.85;1.95;;;;;;;;;;5055248;28;20674;-64
2021/11/30 06:20:27;;;;;;;2.35;1.60;;;;;;;;;;5057193;28;20240;-64
2021/11/30 06:22:59;;;;;;;3.33;1.85;;;;;;;;;;5054994;28;20218;-66
2021/11/30 06:25:26;;;;;;;2.95;1.42;;;;;;;;;;5068656;28;20197;-65
2021/11/30 06:27:56;;;;;;;5.30;2.20;;;;;;;;;;5072793;28;20194;-64
2021/11/30 06:30:25;;;;;;;3.40;1.60;;;;;;;;;;5071887;28;20182;-66
2021/11/30 06:32:54;;;;;;;3.95;1.80;;;;;;;;;;5068398;28;20198;-65
2021/11/30 06:35:22;;;;;;;3.95;1.73;;;;;;;;;;5072046;28;20227;-65
2021/11/30 06:37:50;;;;;;;2.53;1.23;;;;;;;;;;5072559;28;20194;-65
2021/11/30 06:40:20;;;;;;;5.53;1.88;;;;;;;;;;5057487;28;20187;-65
2021/11/30 06:42:47;;;;;;;2.65;1.42;;;;;;;;;;5054727;28;20187;-65
2021/11/30 06:45:17;;;;;;;3.28;1.60;;;;;;;;;;5061360;28;20193;-64
2021/11/30 06:47:44;;;;;;;1.90;1.25;;;;;;;;;;5071713;28;20225;-65
2021/11/30 06:50:14;;;;;;;6.10;1.65;;;;;;;;;;5070529;28;20186;-64
2021/11/30 06:52:43;;;;;;;4.72;1.58;;;;;;;;;;5054399;28;20244;-65
2021/11/30 06:55:13;;;;;;;5.63;2.08;;;;;;;;;;5071761;28;20777;-65
2021/11/30 06:57:41;;;;;;;3.97;2.28;;;;;;;;;;5062372;28;20183;-65
2021/11/30 07:00:10;;;;;;;4.30;1.80;;;;;;;;;;5054149;28;20210;-65
2021/11/30 07:02:40;;;;;;;4.03;2.50;;;;;;;;;;5056551;28;20302;-64
2021/11/30 07:05:19;;;;;;;2.80;1.40;;;;;;;;;;5072166;28;20324;-64
2021/11/30 07:07:57;;;;;;;4.28;1.13;;;;;;;;;;5055331;28;20187;-64
2021/11/30 07:10:37;;;;;;;4.32;1.55;;;;;;;;;;5062275;28;20638;-65
2021/11/30 07:13:16;;;;;;;3.10;1.23;;;;;;;;;;5053299;28;20197;-65
2021/11/30 07:15:46;;;;;;;3.83;2.20;;;;;;;;;;5056076;28;20339;-65
2021/11/30 07:18:16;;;;;;;2.65;1.50;;;;;;;;;;5053830;28;20281;-65
2021/11/30 07:20:44;;;;;;;2.80;1.55;;;;;;;;;;5066775;28;20199;-65
2021/11/30 07:23:14;;;;;;;3.38;1.23;;;;;;;;;;5071272;28;20248;-65
2021/11/30 07:25:42;;;;;;;2.20;1.20;;;;;;;;;;5070515;28;20578;-65
2021/11/30 07:28:09;;;;;;;2.83;1.20;;;;;;;;;;5070547;28;20657;-65
2021/11/30 07:30:37;;;;;;;1.95;1.10;;;;;;;;;;5070826;28;20222;-64
2021/11/30 07:33:05;;;;;;;3.70;1.50;;;;;;;;;;5071569;28;20198;-65
2021/11/30 07:35:35;;;;;;;2.20;1.15;;;;;;;;;;5070702;28;20218;-64
2021/11/30 07:38:03;;;;;;;3.08;1.50;;;;;;;;;;5067552;28;20214;-65
2021/11/30 07:40:32;;;;;;;2.40;1.20;;;;;;;;;;5070766;28;20500;-65
2021/11/30 07:42:59;;;;;;;1.70;0.90;;;;;;;;;;5071200;28;20247;-65
2021/11/30 07:45:31;;;;;;;2.80;1.27;;;;;;;;;;5068432;28;20218;-65
2021/11/30 07:47:59;;;;;;;1.80;0.98;;;;;;;;;;5067058;28;20191;-65
2021/11/30 07:50:26;;;;;;;1.83;0.90;;;;;;;;;;5066765;28;20638;-65
2021/11/30 07:52:54;;;;;;;4.20;1.52;;;;;;;;;;5069356;28;20193;-66
2021/11/30 07:55:21;;;;;;;2.88;0.90;;;;;;;;;;5059659;28;20276;-65
2021/11/30 07:57:50;;;;;;;3.67;0.98;;;;;;;;;;5053433;28;20576;-64
2021/11/30 08:00:18;;;;;;;6.05;1.48;;;;;;;;;;5066274;28;20225;-64
2021/11/30 08:02:46;;;;;;;2.67;1.00;;;;;;;;;;5070325;28;20621;-64
2021/11/30 08:05:14;;;;;;;1.70;1.10;;;;;;;;;;5070487;28;20646;-65
2021/11/30 08:07:41;;;;;;;4.80;2.70;;;;;;;;;;5063516;28;20282;-64
2021/11/30 08:10:13;;;;;;;2.17;1.40;;;;;;;;;;5053126;28;20224;-65
2021/11/30 08:12:43;;;;;;;4.72;0.80;;;;;;;;;;5064725;28;20240;-64
2021/11/30 08:15:13;;;;;;;2.70;0.93;;;;;;;;;;5056462;28;20238;-64
2021/11/30 08:17:49;;;;;;;3.30;1.20;;;;;;;;;;5069247;28;20194;-65
2021/11/30 08:20:18;;;;;;;1.75;0.90;;;;;;;;;;5061495;28;20182;-65
2021/11/30 08:22:53;;;;;;;2.00;1.00;;;;;;;;;;5059226;28;20187;-65
2021/11/30 08:25:21;;;;;;;2.60;1.10;;;;;;;;;;5059392;28;20186;-65
2021/11/30 08:27:52;;;;;;;2.65;0.82;;;;;;;;;;5055507;28;20194;-64
2021/11/30 08:30:21;;;;;;;4.38;0.70;;;;;;;;;;5052393;28;20653;-64
2021/11/30 08:32:49;;;;;;;1.90;0.88;;;;;;;;;;5064673;28;20197;-64
2021/11/30 08:35:16;;;;;;;4.75;1.10;;;;;;;;;;5058969;28;20555;-64
2021/11/30 08:37:44;;;;;;;4.43;1.10;;;;;;;;;;5051834;28;20198;-64
2021/11/30 08:40:12;;;;;;;2.78;1.10;;;;;;;;;;5052173;28;20191;-65
2021/11/30 08:42:40;;;;;;;1.98;0.90;;;;;;;;;;5066126;28;20251;-65
2021/11/30 08:45:08;;;;;;;4.55;0.90;;;;;;;;;;5070117;28;20191;-64
2021/11/30 08:47:37;;;;;;;2.70;1.25;;;;;;;;;;5069973;28;20661;-64
2021/11/30 08:50:08;;;;;;;2.17;1.13;;;;;;;;;;5069184;28;20190;-65
2021/11/30 08:52:36;;;;;;;2.95;1.00;;;;;;;;;;5070105;28;20193;-65
2021/11/30 08:55:04;;;;;;;4.93;1.23;;;;;;;;;;5069929;28;20204;-64
2021/11/30 08:57:32;;;;;;;1.92;0.90;;;;;;;;;;5069089;28;20720;-65
2021/11/30 08:59:59;;;;;;;1.50;0.70;;;;;;;;;;5069661;28;20200;-65
2021/11/30 09:02:27;;;;;;;3.35;0.95;;;;;;;;;;5069952;28;20198;-64
2021/11/30 09:04:56;;;;;;;2.78;0.90;;;;;;;;;;5069692;28;20192;-64
2021/11/30 09:07:26;;;;;;;3.92;1.85;;;;;;;;;;5068966;28;20292;-64
2021/11/30 09:09:53;;;;;;;4.30;1.40;;;;;;;;;;5069233;28;20243;-64
2021/11/30 09:12:24;;;;;;;1.70;0.90;;;;;;;;;;5069655;28;20196;-64
2021/11/30 09:14:54;;;;;;;1.50;0.60;;;;;;;;;;5068905;28;20313;-65
2021/11/30 09:17:23;;;;;;;2.20;0.75;;;;;;;;;;5069697;28;20224;-64
2021/11/30 09:19:50;;;;;;;2.38;0.60;;;;;;;;;;5067778;28;20809;-64
2021/11/30 09:22:21;;;;;;;2.33;0.90;;;;;;;;;;5051869;28;20187;-65
2021/11/30 09:24:51;;;;;;;1.77;0.73;;;;;;;;;;5054108;28;20186;-65
2021/11/30 09:27:23;;;;;;;1.98;0.70;;;;;;;;;;5051918;28;20210;-64
2021/11/30 09:29:51;;;;;;;1.40;0.60;;;;;;;;;;5051708;28;20195;-65
2021/11/30 09:32:18;;;;;;;4.05;0.60;;;;;;;;;;5065258;28;20251;-64
2021/11/30 09:34:46;;;;;;;4.60;0.70;;;;;;;;;;5068144;28;20186;-65
2021/11/30 09:37:13;;;;;;;3.95;1.13;;;;;;;;;;5060388;28;20614;-64
2021/11/30 09:39:46;;;;;;;1.65;0.65;;;;;;;;;;5059653;28;20194;-66
2021/11/30 09:42:14;;;;;;;2.70;0.95;;;;;;;;;;5064943;28;20182;-64
2021/11/30 09:44:42;;;;;;;1.70;0.70;;;;;;;;;;5067028;28;20201;-64
2021/11/30 09:47:13;;;;;;;5.20;0.70;;;;;;;;;;5059292;28;20187;-65
2021/11/30 09:49:40;;;;;;;3.70;0.60;;;;;;;;;;5065198;28;20183;-67
2021/11/30 09:52:08;;;;;;;1.98;0.80;;;;;;;;;;5061120;28;20198;-65
2021/11/30 09:54:37;;;;;;;2.75;0.68;;;;;;;;;;5056701;28;20202;-64
2021/11/30 09:57:06;;;;;;;1.85;0.88;;;;;;;;;;5066595;28;20254;-64
2021/11/30 09:59:34;;;;;;;4.05;1.50;;;;;;;;;;5055313;28;20202;-65
2021/11/30 10:02:01;;;;;;;1.77;1.00;;;;;;;;;;5055281;28;20666;-65
2021/11/30 10:04:29;;;;;;;1.95;0.73;;;;;;;;;;5055146;28;20190;-65
2021/11/30 10:06:57;;;;;;;1.60;0.80;;;;;;;;;;5059181;28;20197;-64
2021/11/30 10:09:29;;;;;;;2.10;0.70;;;;;;;;;;5056219;28;20545;-64
2021/11/30 10:11:58;;;;;;;2.83;0.77;;;;;;;;;;5055001;28;20286;-64
2021/11/30 10:14:33;;;;;;;3.40;0.90;;;;;;;;;;5067810;28;20209;-66
2021/11/30 10:17:18;;;;;;;2.20;0.95;;;;;;;;;;5072825;28;20256;-64
2021/11/30 10:19:52;;;;;;;3.08;1.00;;;;;;;;;;5072874;28;20190;-64
2021/11/30 10:22:34;;;;;;;2.10;1.02;;;;;;;;;;5073076;28;20649;-64
2021/11/30 10:25:09;;;;;;;2.10;0.82;;;;;;;;;;5069945;28;20544;-64
2021/11/30 10:27:37;;;;;;;2.80;1.05;;;;;;;;;;5071941;28;20190;-66
2021/11/30 10:30:11;;;;;;;3.70;0.95;;;;;;;;;;5072537;28;20201;-64
2021/11/30 10:32:43;;;;;;;4.38;1.40;;;;;;;;;;5064879;28;20200;-64
2021/11/30 10:35:11;;;;;;;2.25;1.02;;;;;;;;;;5054828;28;20572;-65
2021/11/30 10:37:41;;;;;;;4.78;1.80;;;;;;;;;;5054480;28;20222;-64
2021/11/30 10:40:12;;;;;;;3.25;1.63;;;;;;;;;;5054778;28;20191;-64
2021/11/30 10:42:47;;;;;;;3.47;1.20;;;;;;;;;;5054522;28;20191;-64
2021/11/30 10:45:24;;;;;;;4.07;1.58;;;;;;;;;;5054577;28;20198;-64
2021/11/30 10:47:52;;;;;;;2.00;0.90;;;;;;;;;;5054227;28;20199;-65
2021/11/30 10:50:25;;;;;;;3.90;1.27;;;;;;;;;;5054308;28;20201;-63
2021/11/30 10:52:57;;;;;;;3.28;1.08;;;;;;;;;;5054449;28;20190;-64
2021/11/30 10:55:25;;;;;;;3.40;1.67;;;;;;;;;;5059883;28;20195;-65
2021/11/30 10:57:52;;;;;;;1.90;0.73;;;;;;;;;;5072013;28;20225;-65
2021/11/30 11:00:23;;;;;;;1.50;0.70;;;;;;;;;;5071151;28;20193;-65
2021/11/30 11:03:01;;;;;;;1.80;0.88;;;;;;;;;;5071526;28;20186;-66
2021/11/30 11:05:29;;;;;;;2.95;0.85;;;;;;;;;;5072064;28;20225;-67
2021/11/30 11:07:59;;;;;;;1.40;0.55;;;;;;;;;;5071374;28;20190;-65
2021/11/30 11:10:26;;;;;;;1.70;0.73;;;;;;;;;;5066032;28;20538;-66
2021/11/30 11:12:53;;;;;;;1.90;0.70;;;;;;;;;;5067405;28;20319;-65
2021/11/30 11:15:36;;;;;;;2.20;0.77;;;;;;;;;;5070289;28;20309;-64
2021/11/30 11:18:18;;;;;;;1.75;0.75;;;;;;;;;;5054948;28;20219;-65
2021/11/30 11:20:46;;;;;;;1.80;0.70;;;;;;;;;;5071599;28;20620;-65
2021/11/30 11:23:20;;;;;;;4.53;0.70;;;;;;;;;;5071623;28;20197;-65
2021/11/30 11:25:52;;;;;;;1.67;0.60;;;;;;;;;;5071860;28;20327;-65
2021/11/30 11:28:19;;;;;;;3.85;1.00;;;;;;;;;;5059635;28;20186;-67
2021/11/30 11:30:47;;;;;;;1.60;0.60;;;;;;;;;;5053791;28;20294;-65
2021/11/30 11:33:16;;;;;;;1.40;0.60;;;;;;;;;;5056599;28;20215;-65
2021/11/30 11:35:44;;;;;;;3.55;0.90;;;;;;;;;;5053994;28;20287;-65
2021/11/30 11:38:12;;;;;;;1.50;0.70;;;;;;;;;;5057472;28;20249;-65
2021/11/30 11:40:39;;;;;;;2.70;1.15;;;;;;;;;;5063404;28;20607;-66
2021/11/30 11:43:06;;;;;;;1.70;0.65;;;;;;;;;;5071375;28;20639;-66
2021/11/30 11:45:33;;;;;;;1.65;0.75;;;;;;;;;;5053896;28;20650;-65
2021/11/30 11:48:04;;;;;;;1.92;0.73;;;;;;;;;;5054492;28;20230;-65
2021/11/30 11:50:49;;;;;;;4.88;1.27;;;;;;;;;;5058308;28;20201;-65
2021/11/30 11:53:25;;;;;;;1.60;0.60;;;;;;;;;;5055403;28;21773;-65
2021/11/30 11:56:10;;;;;;;2.03;0.77;;;;;;;;;;5053235;28;20191;-65
2021/11/30 11:58:40;;;;;;;1.60;0.57;;;;;;;;;;5067746;28;20591;-64
2021/11/30 12:01:08;;;;;;;1.50;0.70;;;;;;;;;;5054647;28;20195;-65
2021/11/30 12:03:57;;;;;;;2.17;1.33;;;;;;;;;;5053368;28;20198;-64
2021/11/30 12:06:27;;;;;;;1.60;0.60;;;;;;;;;;5058691;28;20559;-65
2021/11/30 12:09:24;;;;;;;1.70;0.60;;;;;;;;;;5063888;28;20206;-64
2021/11/30 12:11:53;;;;;;;2.78;1.70;;;;;;;;;;5070904;28;20201;-64
2021/11/30 12:14:22;;;;;;;2.03;1.20;;;;;;;;;;5069642;28;20213;-66
2021/11/30 12:17:17;;;;;;;1.73;0.80;;;;;;;;;;5065065;28;20282;-65
2021/11/30 12:19:45;;;;;;;2.45;1.27;;;;;;;;;;5034202;28;20225;-65
2021/11/30 12:22:16;;;;;;;1.80;0.90;;;;;;;;;;5062948;28;20198;-65
2021/11/30 12:24:44;;;;;;;2.00;1.10;;;;;;;;;;5062423;28;20659;-64
2021/11/30 12:27:30;;;;;;;1.58;0.75;;;;;;;;;;5057991;28;20244;-64
2021/11/30 12:29:57;;;;;;;1.55;0.60;;;;;;;;;;5053204;28;20244;-66
2021/11/30 12:32:29;;;;;;;2.33;0.90;;;;;;;;;;5052860;28;20236;-64
2021/11/30 12:34:58;;;;;;;2.13;0.82;;;;;;;;;;5052941;28;20209;-65
2021/11/30 12:37:28;;;;;;;1.50;0.70;;;;;;;;;;5052370;28;20222;-65
2021/11/30 12:40:04;;;;;;;1.83;0.70;;;;;;;;;;5055958;28;20525;-64
2021/11/30 12:42:31;;;;;;;1.90;0.88;;;;;;;;;;5052867;28;20281;-65
2021/11/30 12:44:59;;;;;;;1.73;1.10;;;;;;;;;;5055948;28;20597;-65
2021/11/30 12:47:28;;;;;;;3.25;0.70;;;;;;;;;;5052565;28;20226;-64
2021/11/30 12:49:56;;;;;;;1.58;0.60;;;;;;;;;;5053476;28;20205;-64
2021/11/30 12:52:24;;;;;;;1.95;0.80;;;;;;;;;;5069671;28;20188;-65
2021/11/30 12:54:53;;;;;;;2.20;0.70;;;;;;;;;;5069821;28;20194;-64
2021/11/30 12:57:36;;;;;;;1.50;0.70;;;;;;;;;;5069616;28;20304;-64
2021/11/30 13:00:08;;;;;;;4.10;1.85;;;;;;;;;;5060136;28;20186;-65
2021/11/30 13:02:41;;;;;;;1.60;0.80;;;;;;;;;;5070588;28;20562;-64
2021/11/30 13:05:26;;;;;;;2.25;0.88;;;;;;;;;;5067863;28;20186;-65
2021/11/30 13:08:07;;;;;;;2.63;0.63;;;;;;;;;;5068529;28;20189;-64
2021/11/30 13:10:38;;;;;;;1.95;0.82;;;;;;;;;;5069362;28;20193;-64
2021/11/30 13:13:06;;;;;;;1.50;0.80;;;;;;;;;;5069582;28;20194;-64
2021/11/30 13:15:42;;;;;;;1.50;0.70;;;;;;;;;;5055749;28;20620;-64
2021/11/30 13:18:10;;;;;;;1.42;0.63;;;;;;;;;;5067040;28;20317;-64
2021/11/30 13:20:38;;;;;;;2.25;1.05;;;;;;;;;;5069506;28;20186;-64
2021/11/30 13:23:20;;;;;;;1.60;0.65;;;;;;;;;;5061434;28;20201;-64
2021/11/30 13:25:53;;;;;;;1.92;0.77;;;;;;;;;;5070536;28;20653;-65
2021/11/30 13:28:21;;;;;;;2.85;0.65;;;;;;;;;;5072077;28;20193;-64
2021/11/30 13:30:53;;;;;;;1.52;0.65;;;;;;;;;;5075660;28;20194;-65
2021/11/30 13:33:27;;;;;;;1.35;0.50;;;;;;;;;;5075683;28;20644;-66
2021/11/30 13:35:56;;;;;;;1.40;0.52;;;;;;;;;;5066600;28;20240;-64
2021/11/30 13:38:24;;;;;;;1.50;0.60;;;;;;;;;;5058203;28;20218;-64
2021/11/30 13:40:55;;;;;;;2.05;0.90;;;;;;;;;;5058866;28;20214;-65
2021/11/30 13:43:26;;;;;;;1.98;0.88;;;;;;;;;;5060123;28;20551;-65
2021/11/30 13:45:54;;;;;;;1.60;0.75;;;;;;;;;;5059559;28;20654;-64
2021/11/30 13:48:25;;;;;;;1.67;0.75;;;;;;;;;;5057985;28;20195;-65
2021/11/30 13:50:54;;;;;;;1.90;0.70;;;;;;;;;;5071690;28;20188;-65
2021/11/30 13:53:23;;;;;;;1.60;0.80;;;;;;;;;;5066216;28;20642;-64
2021/11/30 13:55:55;;;;;;;1.40;0.70;;;;;;;;;;5063919;28;20629;-66
2021/11/30 13:58:43;;;;;;;1.88;0.80;;;;;;;;;;5075335;28;20220;-64
2021/11/30 14:01:18;;;;;;;1.80;0.70;;;;;;;;;;5074888;28;20198;-65
2021/11/30 14:03:47;;;;;;;1.63;0.73;;;;;;;;;;5075705;28;20555;-65
2021/11/30 14:06:26;;;;;;;1.40;0.70;;;;;;;;;;5070987;28;20600;-65
2021/11/30 14:08:57;;;;;;;2.13;1.30;;;;;;;;;;5062292;28;20189;-64
2021/11/30 14:11:27;;;;;;;2.05;0.95;;;;;;;;;;5065193;28;20235;-65
2021/11/30 14:13:56;;;;;;;1.73;0.70;;;;;;;;;;5071809;28;20230;-65
2021/11/30 14:16:25;;;;;;;1.88;0.75;;;;;;;;;;5064629;28;20225;-64
2021/11/30 14:18:58;;;;;;;1.70;0.80;;;;;;;;;;5057994;28;20222;-64
2021/11/30 14:21:29;;;;;;;1.50;0.60;;;;;;;;;;5071358;28;20186;-64
2021/11/30 14:24:12;;;;;;;1.50;0.70;;;;;;;;;;5075903;28;20194;-64
2021/11/30 14:26:41;;;;;;;2.75;1.25;;;;;;;;;;5071817;28;20193;-64
2021/11/30 14:29:11;;;;;;;2.10;1.10;;;;;;;;;;5075912;28;20301;-66
2021/11/30 14:31:51;;;;;;;1.40;0.57;;;;;;;;;;5075367;28;20186;-65
2021/11/30 14:34:19;;;;;;;1.85;0.70;;;;;;;;;;5070229;28;20237;-64
2021/11/30 14:36:54;;;;;;;1.58;0.65;;;;;;;;;;5060491;28;20194;-65
2021/11/30 14:39:24;;;;;;;1.50;0.73;;;;;;;;;;5068693;28;20186;-64
2021/11/30 14:41:54;;;;;;;1.45;0.57;;;;;;;;;;5072950;28;20193;-64
2021/11/30 14:44:32;;;;;;;2.00;0.60;;;;;;;;;;5071611;28;20182;-65
2021/11/30 14:47:16;;;;;;;2.50;0.75;;;;;;;;;;5072676;28;20198;-64
2021/11/30 14:49:44;;;;;;;1.40;0.57;;;;;;;;;;5063582;28;20244;-64
2021/11/30 14:52:18;;;;;;;1.65;0.50;;;;;;;;;;5056839;28;20198;-64
2021/11/30 14:54:50;;;;;;;1.50;0.80;;;;;;;;;;5055115;28;20265;-67
2021/11/30 14:57:27;;;;;;;1.85;0.73;;;;;;;;;;5054690;28;20681;-65
2021/11/30 15:00:00;;;;;;;2.80;1.50;;;;;;;;;;5064542;28;20182;-66
2021/11/30 15:02:28;;;;;;;2.95;0.80;;;;;;;;;;5072557;28;20247;-65
2021/11/30 15:04:57;;;;;;;2.25;1.00;;;;;;;;;;5060537;28;20237;-65
2021/11/30 15:07:32;;;;;;;1.55;0.60;;;;;;;;;;5054356;28;20195;-66